createdAt,value
2022-10-25T00:01:25.035Z,100051.00
2022-10-25T00:03:56.720Z,100063.00
2022-10-25T00:06:25.524Z,100074.00
2022-10-25T00:08:54.140Z,100085.00
2022-10-25T00:11:25.805Z,100080.00
2022-10-25T00:13:56.431Z,100085.00
2022-10-25T00:16:26.616Z,100080.00
2022-10-25T00:18:56.681Z,100078.00
2022-10-25T00:21:25.453Z,100073.00
2022-10-25T00:23:54.285Z,100077.00
2022-10-25T00:26:23.362Z,100063.00
2022-10-25T00:28:55.466Z,100070.00
2022-10-25T00:31:24.651Z,100077.00
2022-10-25T00:33:53.295Z,100077.00
2022-10-25T00:36:25.603Z,100069.00
2022-10-25T00:38:54.712Z,100081.00
2022-10-25T00:41:25.828Z,100067.00
2022-10-25T00:43:56.364Z,100075.00
2022-10-25T00:46:29.093Z,100078.00
2022-10-25T00:49:01.707Z,100077.00
2022-10-25T00:51:35.192Z,100080.00
2022-10-25T00:54:03.834Z,100083.00
2022-10-25T00:56:35.147Z,100084.00
2022-10-25T00:59:08.345Z,100077.00
2022-10-25T01:01:37.559Z,100078.00
2022-10-25T01:04:10.151Z,100077.00
2022-10-25T01:06:42.113Z,100074.00
2022-10-25T01:09:12.254Z,100080.00
2022-10-25T01:11:40.757Z,100075.00
2022-10-25T01:14:13.153Z,100079.00
2022-10-25T01:16:49.606Z,100081.00
2022-10-25T01:19:44.157Z,100063.00
2022-10-25T01:22:19.237Z,100069.00
2022-10-25T01:25:16.751Z,100062.00
2022-10-25T01:28:01.007Z,100066.00
2022-10-25T01:30:49.781Z,100074.00
2022-10-25T01:33:27.062Z,100070.00
2022-10-25T01:36:01.821Z,100074.00
2022-10-25T01:38:40.302Z,100065.00
2022-10-25T01:41:19.026Z,100056.00
2022-10-25T01:43:57.342Z,100063.00
2022-10-25T01:46:32.890Z,100063.00
2022-10-25T01:49:05.189Z,100066.00
2022-10-25T01:51:37.797Z,100068.00
2022-10-25T01:54:19.919Z,100061.00
2022-10-25T01:56:58.800Z,100062.00
2022-10-25T01:59:40.509Z,100060.00
2022-10-25T02:02:17.552Z,100062.00
2022-10-25T02:04:52.898Z,100068.00
2022-10-25T02:07:27.125Z,100067.00
2022-10-25T02:12:45.899Z,100065.00
2022-10-25T02:15:20.709Z,100068.00
2022-10-25T02:17:58.479Z,100076.00
2022-10-25T02:20:29.411Z,100075.00
2022-10-25T02:23:00.718Z,100081.00
2022-10-25T02:25:31.775Z,100075.00
2022-10-25T02:28:02.030Z,100079.00
2022-10-25T02:30:33.117Z,100073.00
2022-10-25T02:33:04.268Z,100064.00
2022-10-25T02:35:33.101Z,100074.00
2022-10-25T02:38:02.172Z,100074.00
2022-10-25T02:40:31.739Z,100075.00
2022-10-25T02:43:00.250Z,100076.00
2022-10-25T02:45:29.232Z,100075.00
2022-10-25T02:47:57.701Z,100078.00
2022-10-25T02:50:27.759Z,100088.00
2022-10-25T02:52:56.245Z,100076.00
2022-10-25T02:55:24.760Z,100075.00
2022-10-25T02:57:53.254Z,100079.00
2022-10-25T03:00:21.832Z,100086.00
2022-10-25T03:02:50.438Z,100083.00
2022-10-25T03:05:19.118Z,100076.00
2022-10-25T03:07:49.030Z,100084.00
2022-10-25T03:10:17.729Z,100091.00
2022-10-25T03:12:46.499Z,100083.00
2022-10-25T03:15:15.181Z,100080.00
2022-10-25T03:17:43.866Z,100076.00
2022-10-25T03:20:12.919Z,100083.00
2022-10-25T03:22:42.760Z,100092.00
2022-10-25T03:25:12.802Z,100081.00
2022-10-25T03:27:41.283Z,100090.00
2022-10-25T03:30:10.708Z,100081.00
2022-10-25T03:32:39.463Z,100082.00
2022-10-25T03:35:09.140Z,100090.00
2022-10-25T03:37:37.655Z,100092.00
2022-10-25T03:40:07.120Z,100091.00
2022-10-25T03:42:37.153Z,100087.00
2022-10-25T03:45:07.685Z,100098.00
2022-10-25T03:47:36.465Z,100100.00
2022-10-25T03:50:05.491Z,100090.00
2022-10-25T03:52:33.979Z,100099.00
2022-10-25T03:55:02.620Z,100116.00
2022-10-25T03:57:31.046Z,100112.00
2022-10-25T04:00:01.156Z,100117.00
2022-10-25T04:02:29.980Z,100125.00
2022-10-25T04:04:58.437Z,100120.00
2022-10-25T04:07:26.909Z,100118.00
2022-10-25T04:09:55.619Z,100124.00
2022-10-25T04:12:24.145Z,100123.00
2022-10-25T04:14:52.961Z,100127.00
2022-10-25T04:17:22.839Z,100127.00
2022-10-25T04:19:51.353Z,100135.00
2022-10-25T04:22:19.967Z,100131.00
2022-10-25T04:24:48.530Z,100137.00
2022-10-25T04:27:17.134Z,100134.00
2022-10-25T04:29:45.699Z,100137.00
2022-10-25T04:32:14.244Z,100139.00
2022-10-25T04:34:44.204Z,100131.00
2022-10-25T04:37:12.822Z,100127.00
2022-10-25T04:39:41.371Z,100131.00
2022-10-25T04:44:43.573Z,100128.00
2022-10-25T04:47:12.100Z,100116.00
2022-10-25T04:49:40.595Z,100122.00
2022-10-25T04:52:10.397Z,100112.00
2022-10-25T04:54:38.871Z,100115.00
2022-10-25T04:57:08.009Z,100127.00
2022-10-25T04:59:36.523Z,100122.00
2022-10-25T05:02:05.714Z,100128.00
2022-10-25T05:04:34.228Z,100138.00
2022-10-25T05:07:02.789Z,100135.00
2022-10-25T05:09:32.648Z,100143.00
2022-10-25T05:12:01.121Z,100152.00
2022-10-25T05:14:29.555Z,100147.00
2022-10-25T05:16:58.080Z,100149.00
2022-10-25T05:19:26.737Z,100149.00
2022-10-25T05:21:55.257Z,100155.00
2022-10-25T05:24:24.266Z,100156.00
2022-10-25T05:26:54.110Z,100168.00
2022-10-25T05:29:22.561Z,100164.00
2022-10-25T05:31:51.060Z,100160.00
2022-10-25T05:34:19.505Z,100176.00
2022-10-25T05:36:48.034Z,100185.00
2022-10-25T05:39:16.447Z,100184.00
2022-10-25T05:41:44.911Z,100176.00
2022-10-25T05:44:15.007Z,100190.00
2022-10-25T05:46:43.861Z,100175.00
2022-10-25T05:49:13.337Z,100175.00
2022-10-25T05:51:42.221Z,100177.00
2022-10-25T05:54:15.759Z,100182.00
2022-10-25T05:56:44.859Z,100177.00
2022-10-25T05:59:15.978Z,100183.00
2022-10-25T06:01:46.900Z,100184.00
2022-10-25T06:04:16.195Z,100197.00
2022-10-25T06:06:46.294Z,100199.00
2022-10-25T06:09:15.593Z,100195.00
2022-10-25T06:11:44.180Z,100200.00
2022-10-25T06:14:14.258Z,100199.00
2022-10-25T06:16:42.832Z,100211.00
2022-10-25T06:19:11.374Z,100207.00
2022-10-25T06:21:39.840Z,100223.00
2022-10-25T06:24:10.175Z,100219.00
2022-10-25T06:26:38.634Z,100229.00
2022-10-25T06:29:07.398Z,100236.00
2022-10-25T06:31:37.224Z,100236.00
2022-10-25T06:34:05.913Z,100241.00
2022-10-25T06:36:34.430Z,100244.00
2022-10-25T06:39:05.721Z,100247.00
2022-10-25T06:41:36.979Z,100249.00
2022-10-25T06:44:07.158Z,100246.00
2022-10-25T06:49:27.575Z,100241.00
2022-10-25T06:51:56.174Z,100244.00
2022-10-25T06:54:26.667Z,100237.00
2022-10-25T06:56:55.291Z,100250.00
2022-10-25T06:59:23.888Z,100246.00
2022-10-25T07:01:55.232Z,100250.00
2022-10-25T07:04:23.837Z,100251.00
2022-10-25T07:06:55.160Z,100245.00
2022-10-25T07:09:24.350Z,100234.00
2022-10-25T07:11:52.933Z,100245.00
2022-10-25T07:14:24.834Z,100238.00
2022-10-25T07:16:54.668Z,100251.00
2022-10-25T07:19:24.624Z,100244.00
2022-10-25T07:21:53.458Z,100254.00
2022-10-25T07:24:21.927Z,100263.00
2022-10-25T07:26:50.417Z,100262.00
2022-10-25T07:29:19.323Z,100263.00
2022-10-25T07:31:47.706Z,100262.00
2022-10-25T07:34:17.883Z,100272.00
2022-10-25T07:36:46.327Z,100278.00
2022-10-25T07:39:14.765Z,100270.00
2022-10-25T07:41:43.171Z,100284.00
2022-10-25T07:44:16.025Z,100285.00
2022-10-25T07:46:45.231Z,100280.00
2022-10-25T07:49:13.966Z,100287.00
2022-10-25T07:51:44.134Z,100280.00
2022-10-25T07:54:12.580Z,100278.00
2022-10-25T07:56:41.096Z,100276.00
2022-10-25T07:59:09.711Z,100277.00
2022-10-25T08:01:38.590Z,100289.00
2022-10-25T08:04:07.120Z,100283.00
2022-10-25T08:06:36.238Z,100294.00
2022-10-25T08:09:14.643Z,100288.00
2022-10-25T08:11:43.900Z,100291.00
2022-10-25T08:14:12.486Z,100290.00
2022-10-25T08:16:41.058Z,100286.00
2022-10-25T08:19:09.602Z,100288.00
2022-10-25T08:21:38.342Z,100286.00
2022-10-25T08:24:08.837Z,100290.00
2022-10-25T08:26:37.449Z,100289.00
2022-10-25T08:29:05.942Z,100291.00
2022-10-25T08:31:34.501Z,100289.00
2022-10-25T08:34:03.077Z,100288.00
2022-10-25T08:36:31.566Z,100280.00
2022-10-25T08:39:00.063Z,100300.00
2022-10-25T08:41:42.988Z,100289.00
2022-10-25T08:44:18.334Z,100298.00
2022-10-25T08:46:57.188Z,100289.00
2022-10-25T08:49:30.640Z,100294.00
2022-10-25T08:52:01.377Z,100301.00
2022-10-25T08:54:33.222Z,100305.00
2022-10-25T08:57:16.381Z,100315.00
2022-10-25T08:59:49.027Z,100316.00
2022-10-25T09:02:27.809Z,100318.00
2022-10-25T09:04:56.450Z,100311.00
2022-10-25T09:07:42.789Z,100311.00
2022-10-25T09:10:23.177Z,100325.00
2022-10-25T09:13:07.017Z,100314.00
2022-10-25T09:15:53.488Z,100335.00
2022-10-25T09:18:30.773Z,100334.00
2022-10-25T09:21:02.658Z,100338.00
2022-10-25T09:23:32.935Z,100335.00
2022-10-25T09:26:05.395Z,100342.00
2022-10-25T09:28:50.562Z,100338.00
2022-10-25T09:31:23.714Z,100340.00
2022-10-25T09:34:00.052Z,100342.00
2022-10-25T09:36:39.028Z,100338.00
2022-10-25T09:39:18.085Z,100346.00
2022-10-25T09:41:50.248Z,100343.00
2022-10-25T09:44:35.907Z,100346.00
2022-10-25T09:47:14.773Z,100354.00
2022-10-25T09:49:50.066Z,100351.00
2022-10-25T09:52:26.909Z,100337.00
2022-10-25T09:55:03.074Z,100349.00
2022-10-25T09:57:31.577Z,100349.00
2022-10-25T10:00:01.468Z,100349.00
2022-10-25T10:02:30.211Z,100354.00
2022-10-25T10:04:58.913Z,100358.00
2022-10-25T10:07:32.896Z,100368.00
2022-10-25T10:10:04.689Z,100364.00
2022-10-25T10:12:40.987Z,100364.00
2022-10-25T10:15:18.866Z,100363.00
2022-10-25T10:17:47.701Z,100371.00
2022-10-25T10:20:17.875Z,100367.00
2022-10-25T10:25:22.569Z,100369.00
2022-10-25T10:27:53.260Z,100369.00
2022-10-25T10:30:26.538Z,100359.00
2022-10-25T10:32:57.854Z,100371.00
2022-10-25T10:35:34.598Z,100373.00
2022-10-25T10:38:21.440Z,100362.00
2022-10-25T10:40:51.711Z,100365.00
2022-10-25T10:43:32.255Z,100354.00
2022-10-25T10:46:09.160Z,100355.00
2022-10-25T10:48:42.893Z,100364.00
2022-10-25T10:51:38.814Z,100354.00
2022-10-25T10:54:15.728Z,100359.00
2022-10-25T10:56:44.259Z,100366.00
2022-10-25T10:59:28.950Z,100374.00
2022-10-25T11:01:59.183Z,100366.00
2022-10-25T11:04:27.778Z,100362.00
2022-10-25T11:07:15.063Z,100364.00
2022-10-25T11:09:43.590Z,100370.00
2022-10-25T11:12:14.837Z,100367.00
2022-10-25T11:14:43.653Z,100372.00
2022-10-25T11:17:16.979Z,100375.00
2022-10-25T11:19:59.391Z,100370.00
2022-10-25T11:22:48.762Z,100373.00
2022-10-25T11:25:35.222Z,100361.00
2022-10-25T11:28:21.398Z,100380.00
2022-10-25T11:31:01.135Z,100379.00
2022-10-25T11:33:46.159Z,100375.00
2022-10-25T11:36:29.888Z,100371.00
2022-10-25T11:39:07.495Z,100378.00
2022-10-25T11:41:46.306Z,100372.00
2022-10-25T11:44:40.655Z,100365.00
2022-10-25T11:47:25.011Z,100371.00
2022-10-25T11:50:04.612Z,100368.00
2022-10-25T11:52:54.422Z,100373.00
2022-10-25T11:55:33.885Z,100380.00
2022-10-25T11:58:19.316Z,100383.00
2022-10-25T12:00:56.884Z,100380.00
2022-10-25T12:03:42.954Z,100379.00
2022-10-25T12:06:22.416Z,100376.00
2022-10-25T12:09:02.723Z,100371.00
2022-10-25T12:11:34.864Z,100367.00
2022-10-25T12:14:08.460Z,100373.00
2022-10-25T12:16:38.627Z,100375.00
2022-10-25T12:19:14.626Z,100385.00
2022-10-25T12:21:48.567Z,100386.00
2022-10-25T12:24:22.134Z,100376.00
2022-10-25T12:26:53.889Z,100385.00
2022-10-25T12:29:27.507Z,100380.00
2022-10-25T12:31:59.562Z,100385.00
2022-10-25T12:34:39.606Z,100385.00
2022-10-25T12:37:15.978Z,100387.00
2022-10-25T12:39:45.502Z,100388.00
2022-10-25T12:42:18.481Z,100391.00
2022-10-25T12:45:25.957Z,100383.00
2022-10-25T12:48:13.143Z,100389.00
2022-10-25T12:51:04.042Z,100387.00
2022-10-25T12:54:03.431Z,100388.00
2022-10-25T12:56:44.857Z,100381.00
2022-10-25T12:59:31.732Z,100387.00
2022-10-25T13:02:29.860Z,100396.00
2022-10-25T13:05:31.312Z,100381.00
2022-10-25T13:08:02.749Z,100384.00
2022-10-25T13:10:36.974Z,100381.00
2022-10-25T13:13:09.002Z,100395.00
2022-10-25T13:15:44.921Z,100393.00
2022-10-25T13:18:29.482Z,100392.00
2022-10-25T13:20:58.516Z,100392.00
2022-10-25T13:24:01.013Z,100396.00
2022-10-25T13:26:46.993Z,100397.00
2022-10-25T13:30:03.349Z,100397.00
2022-10-25T13:32:33.904Z,100394.00
2022-10-25T13:35:03.889Z,100395.00
2022-10-25T13:37:54.199Z,100398.00
2022-10-25T13:40:25.355Z,100400.00
2022-10-25T13:43:04.101Z,100398.00
2022-10-25T13:45:39.150Z,100400.00
2022-10-25T13:48:30.668Z,100406.00
2022-10-25T13:51:01.485Z,100408.00
2022-10-25T13:53:37.728Z,100400.00
2022-10-25T13:56:08.914Z,100405.00
2022-10-25T13:58:50.699Z,100415.00
2022-10-25T14:01:57.266Z,100412.00
2022-10-25T14:04:39.606Z,100404.00
2022-10-25T14:07:46.805Z,100412.00
2022-10-25T14:10:28.025Z,100415.00
2022-10-25T14:13:09.090Z,100417.00
2022-10-25T14:15:47.981Z,100425.00
2022-10-25T14:18:21.495Z,100423.00
2022-10-25T14:20:53.953Z,100415.00
2022-10-25T14:23:24.635Z,100425.00
2022-10-25T14:25:56.306Z,100431.00
2022-10-25T14:28:26.816Z,100426.00
2022-10-25T14:30:58.258Z,100442.00
2022-10-25T14:33:31.413Z,100436.00
2022-10-25T14:36:10.240Z,100429.00
2022-10-25T14:38:50.741Z,100424.00
2022-10-25T14:41:23.467Z,100424.00
2022-10-25T14:43:52.036Z,100425.00
2022-10-25T14:46:23.183Z,100431.00
2022-10-25T14:48:57.359Z,100428.00
2022-10-25T14:51:29.377Z,100420.00
2022-10-25T14:54:01.213Z,100418.00
2022-10-25T14:56:33.528Z,100420.00
2022-10-25T14:59:03.900Z,100423.00
2022-10-25T15:01:34.960Z,100410.00
2022-10-25T15:04:03.471Z,100412.00
2022-10-25T15:06:33.558Z,100406.00
2022-10-25T15:09:37.458Z,100414.00
2022-10-25T15:12:16.834Z,100418.00
2022-10-25T15:14:47.458Z,100411.00
2022-10-25T15:17:27.466Z,100412.00
2022-10-25T15:20:05.578Z,100404.00
2022-10-25T15:22:42.403Z,100406.00
2022-10-25T15:25:29.767Z,100411.00
2022-10-25T15:28:09.172Z,100403.00
2022-10-25T15:30:39.477Z,100403.00
2022-10-25T15:33:12.877Z,100403.00
2022-10-25T15:35:48.878Z,100400.00
2022-10-25T15:38:18.432Z,100401.00
2022-10-25T15:40:47.488Z,100401.00
2022-10-25T15:43:16.031Z,100406.00
2022-10-25T15:45:44.852Z,100407.00
2022-10-25T15:48:17.174Z,100407.00
2022-10-25T15:50:50.048Z,100411.00
2022-10-25T15:53:18.761Z,100408.00
2022-10-25T15:55:48.100Z,100414.00
2022-10-25T15:58:16.563Z,100413.00
2022-10-25T16:00:46.121Z,100409.00
2022-10-25T16:03:21.941Z,100418.00
2022-10-25T16:05:52.278Z,100409.00
2022-10-25T16:08:20.774Z,100417.00
2022-10-25T16:10:49.317Z,100419.00
2022-10-25T16:13:27.659Z,100421.00
2022-10-25T16:15:56.280Z,100417.00
2022-10-25T16:18:26.568Z,100420.00
2022-10-25T16:20:57.828Z,100424.00
2022-10-25T16:23:27.339Z,100419.00
2022-10-25T16:25:56.742Z,100422.00
2022-10-25T16:30:58.598Z,100421.00
2022-10-25T16:33:28.392Z,100434.00
2022-10-25T16:35:56.881Z,100433.00
2022-10-25T16:38:25.334Z,100438.00
2022-10-25T16:40:53.762Z,100433.00
2022-10-25T16:43:22.399Z,100440.00
2022-10-25T16:45:50.874Z,100442.00
2022-10-25T16:48:19.380Z,100442.00
2022-10-25T16:50:49.244Z,100439.00
2022-10-25T16:53:17.719Z,100445.00
2022-10-25T16:55:46.161Z,100450.00
2022-10-25T16:58:14.565Z,100450.00
2022-10-25T17:00:43.070Z,100455.00
2022-10-25T17:03:11.510Z,100461.00
2022-10-25T17:05:40.330Z,100461.00
2022-10-25T17:08:10.172Z,100458.00
2022-10-25T17:10:42.494Z,100458.00
2022-10-25T17:13:16.220Z,100451.00
2022-10-25T17:15:44.732Z,100453.00
2022-10-25T17:18:16.717Z,100464.00
2022-10-25T17:20:45.202Z,100471.00
2022-10-25T17:23:15.176Z,100476.00
2022-10-25T17:25:43.726Z,100479.00
2022-10-25T17:28:12.164Z,100482.00
2022-10-25T17:30:43.387Z,100477.00
2022-10-25T17:33:11.777Z,100478.00
2022-10-25T17:35:42.735Z,100479.00
2022-10-25T17:38:11.371Z,100474.00
2022-10-25T17:40:41.599Z,100485.00
2022-10-25T17:43:11.749Z,100479.00
2022-10-25T17:45:40.334Z,100476.00
2022-10-25T17:48:08.924Z,100476.00
2022-10-25T17:50:40.974Z,100471.00
2022-10-25T17:53:10.612Z,100477.00
2022-10-25T17:55:41.213Z,100490.00
2022-10-25T17:58:09.757Z,100478.00
2022-10-25T18:00:38.219Z,100476.00
2022-10-25T18:03:06.673Z,100479.00
2022-10-25T18:05:35.191Z,100483.00
2022-10-25T18:08:03.715Z,100483.00
2022-10-25T18:10:34.876Z,100492.00
2022-10-25T18:13:04.690Z,100488.00
2022-10-25T18:15:35.133Z,100485.00
2022-10-25T18:18:03.556Z,100484.00
2022-10-25T18:20:32.205Z,100483.00
2022-10-25T18:23:00.632Z,100484.00
2022-10-25T18:25:29.089Z,100494.00
2022-10-25T18:27:57.507Z,100483.00
2022-10-25T18:30:27.397Z,100487.00
2022-10-25T18:32:56.403Z,100487.00
2022-10-25T18:35:24.851Z,100487.00
2022-10-25T18:37:53.862Z,100484.00
2022-10-25T18:40:22.710Z,100485.00
2022-10-25T18:42:51.169Z,100488.00
2022-10-25T18:45:19.636Z,100480.00
2022-10-25T18:47:53.924Z,100479.00
2022-10-25T18:50:22.489Z,100483.00
2022-10-25T18:52:50.976Z,100481.00
2022-10-25T18:55:21.518Z,100479.00
2022-10-25T18:57:50.286Z,100477.00
2022-10-25T19:00:19.596Z,100483.00
2022-10-25T19:02:53.819Z,100479.00
2022-10-25T19:05:22.991Z,100475.00
2022-10-25T19:07:51.491Z,100481.00
2022-10-25T19:10:20.063Z,100476.00
2022-10-25T19:12:48.569Z,100481.00
2022-10-25T19:15:17.293Z,100475.00
2022-10-25T19:17:45.851Z,100475.00
2022-10-25T19:20:15.985Z,100477.00
2022-10-25T19:22:44.503Z,100475.00
2022-10-25T19:25:13.092Z,100474.00
2022-10-25T19:27:41.627Z,100478.00
2022-10-25T19:30:11.085Z,100474.00
2022-10-25T19:32:39.550Z,100471.00
2022-10-25T19:35:08.515Z,100478.00
2022-10-25T19:37:41.573Z,100474.00
2022-10-25T19:40:11.445Z,100476.00
2022-10-25T19:42:40.288Z,100462.00
2022-10-25T19:45:09.316Z,100472.00
2022-10-25T19:47:37.933Z,100479.00
2022-10-25T19:50:07.332Z,100481.00
2022-10-25T19:52:36.599Z,100484.00
2022-10-25T19:55:07.744Z,100487.00
2022-10-25T19:57:36.560Z,100483.00
2022-10-25T20:00:09.911Z,100499.00
2022-10-25T20:02:41.238Z,100490.00
2022-10-25T20:07:39.922Z,100495.00
2022-10-25T20:10:10.452Z,100490.00
2022-10-25T20:12:38.906Z,100488.00
2022-10-25T20:15:08.570Z,100493.00
2022-10-25T20:17:37.097Z,100490.00
2022-10-25T20:20:06.400Z,100492.00
2022-10-25T20:22:37.939Z,100493.00
2022-10-25T20:25:07.980Z,100498.00
2022-10-25T20:27:37.864Z,100499.00
2022-10-25T20:30:07.281Z,100504.00
2022-10-25T20:32:35.729Z,100495.00
2022-10-25T20:37:33.157Z,100501.00
2022-10-25T20:40:02.484Z,100504.00
2022-10-25T20:42:30.978Z,100506.00
2022-10-25T20:45:00.968Z,100498.00
2022-10-25T20:47:29.542Z,100503.00
2022-10-25T20:49:57.994Z,100499.00
2022-10-25T20:52:26.628Z,100497.00
2022-10-25T20:54:58.094Z,100485.00
2022-10-25T20:57:26.697Z,100485.00
2022-10-25T20:59:55.141Z,100480.00
2022-10-25T21:02:25.134Z,100487.00
2022-10-25T21:04:54.192Z,100494.00
2022-10-25T21:07:23.935Z,100491.00
2022-10-25T21:09:52.496Z,100500.00
2022-10-25T21:12:21.162Z,100497.00
2022-10-25T21:14:49.680Z,100498.00
2022-10-25T21:17:18.152Z,100501.00
2022-10-25T21:19:48.009Z,100506.00
2022-10-25T21:22:16.463Z,100505.00
2022-10-25T21:24:44.851Z,100513.00
2022-10-25T21:27:13.365Z,100525.00
2022-10-25T21:29:41.836Z,100518.00
2022-10-25T21:32:10.426Z,100519.00
2022-10-25T21:34:38.842Z,100516.00
2022-10-25T21:37:08.755Z,100512.00
2022-10-25T21:39:37.205Z,100510.00
2022-10-25T21:42:05.837Z,100503.00
2022-10-25T21:44:34.271Z,100511.00
2022-10-25T21:47:02.775Z,100512.00
2022-10-25T21:49:31.426Z,100523.00
2022-10-25T21:52:00.030Z,100517.00
2022-10-25T21:54:29.860Z,100517.00
2022-10-25T21:56:58.346Z,100509.00
2022-10-25T21:59:27.237Z,100509.00
2022-10-25T22:01:55.799Z,100513.00
2022-10-25T22:04:25.205Z,100511.00
2022-10-25T22:06:53.825Z,100509.00
2022-10-25T22:09:22.315Z,100518.00
2022-10-25T22:11:53.343Z,100509.00
2022-10-25T22:14:21.867Z,100509.00
2022-10-25T22:16:50.480Z,100506.00
2022-10-25T22:21:51.347Z,100513.00
2022-10-25T22:24:20.006Z,100519.00
2022-10-25T22:26:50.884Z,100515.00
2022-10-25T22:29:20.719Z,100519.00
2022-10-25T22:31:49.193Z,100523.00
2022-10-25T22:34:17.620Z,100514.00
2022-10-25T22:36:46.062Z,100514.00
2022-10-25T22:39:16.476Z,100507.00
2022-10-25T22:41:46.071Z,100510.00
2022-10-25T22:44:14.573Z,100516.00
2022-10-25T22:46:44.427Z,100512.00
2022-10-25T22:49:12.941Z,100518.00
2022-10-25T22:51:41.455Z,100509.00
2022-10-25T22:54:10.143Z,100508.00
2022-10-25T22:56:39.380Z,100507.00
2022-10-25T22:59:08.253Z,100506.00
2022-10-25T23:01:38.150Z,100517.00
2022-10-25T23:04:09.422Z,100522.00
2022-10-25T23:06:39.425Z,100508.00
2022-10-25T23:09:09.816Z,100514.00
2022-10-25T23:11:40.719Z,100511.00
2022-10-25T23:14:14.757Z,100510.00
2022-10-25T23:16:46.297Z,100512.00
2022-10-25T23:19:16.412Z,100508.00
2022-10-25T23:21:44.930Z,100514.00
2022-10-25T23:24:13.422Z,100507.00
2022-10-25T23:26:41.977Z,100510.00
2022-10-25T23:29:13.470Z,100511.00
2022-10-25T23:31:41.987Z,100507.00
2022-10-25T23:34:11.379Z,100498.00
2022-10-25T23:36:41.330Z,100499.00
2022-10-25T23:39:09.919Z,100495.00
2022-10-25T23:41:39.213Z,100494.00
2022-10-25T23:44:07.659Z,100507.00
2022-10-25T23:46:36.110Z,100512.00
2022-10-25T23:49:04.571Z,100516.00
2022-10-25T23:51:33.078Z,100511.00
2022-10-25T23:54:02.962Z,100502.00
2022-10-25T23:56:31.454Z,100503.00
2022-10-25T23:59:00.424Z,100506.00
